createdAt,value
2022-10-24T00:00:03.817Z,984.48
2022-10-24T00:01:03.804Z,984.46
2022-10-24T00:02:03.735Z,984.48
2022-10-24T00:03:03.761Z,984.56
2022-10-24T00:04:03.689Z,984.46
2022-10-24T00:05:03.683Z,984.42
2022-10-24T00:06:03.777Z,984.46
2022-10-24T00:07:03.696Z,984.46
2022-10-24T00:08:03.673Z,984.49
2022-10-24T00:09:03.646Z,984.48
2022-10-24T00:10:03.694Z,984.47
2022-10-24T00:11:03.648Z,984.47
2022-10-24T00:12:03.646Z,984.47
2022-10-24T00:13:03.614Z,984.49
2022-10-24T00:14:03.598Z,984.45
2022-10-24T00:15:03.602Z,984.53
2022-10-24T00:16:03.576Z,984.63
2022-10-24T00:17:03.591Z,984.57
2022-10-24T00:18:03.541Z,984.59
2022-10-24T00:19:03.559Z,984.59
2022-10-24T00:20:03.541Z,984.57
2022-10-24T00:21:03.514Z,984.55
2022-10-24T00:22:03.538Z,984.54
2022-10-24T00:23:03.484Z,984.58
2022-10-24T00:24:03.498Z,984.57
2022-10-24T00:25:03.487Z,984.54
2022-10-24T00:26:03.514Z,984.58
2022-10-24T00:27:03.477Z,984.53
2022-10-24T00:28:03.449Z,984.47
2022-10-24T00:29:03.457Z,984.49
2022-10-24T00:30:03.419Z,984.58
2022-10-24T00:31:03.441Z,984.58
2022-10-24T00:32:03.481Z,984.58
2022-10-24T00:33:03.409Z,984.54
2022-10-24T00:34:03.424Z,984.57
2022-10-24T00:35:03.355Z,984.51
2022-10-24T00:36:03.363Z,984.43
2022-10-24T00:37:03.383Z,984.48
2022-10-24T00:38:03.344Z,984.54
2022-10-24T00:39:03.336Z,984.48
2022-10-24T00:40:03.414Z,984.55
2022-10-24T00:41:03.290Z,984.69
2022-10-24T00:42:03.310Z,984.70
2022-10-24T00:43:03.320Z,984.68
2022-10-24T00:44:03.276Z,984.62
2022-10-24T00:45:03.250Z,984.58
2022-10-24T00:46:03.241Z,984.57
2022-10-24T00:47:03.280Z,984.55
2022-10-24T00:48:03.228Z,984.48
2022-10-24T00:49:03.217Z,984.60
2022-10-24T00:50:03.202Z,984.77
2022-10-24T00:51:03.181Z,984.89
2022-10-24T00:52:03.392Z,984.91
2022-10-24T00:53:03.171Z,984.83
2022-10-24T00:54:03.183Z,984.74
2022-10-24T00:55:03.185Z,984.75
2022-10-24T00:56:03.205Z,984.65
2022-10-24T00:57:03.377Z,984.65
2022-10-24T00:58:03.123Z,984.75
2022-10-24T00:59:03.121Z,984.67
2022-10-24T01:00:03.095Z,984.71
2022-10-24T01:01:03.299Z,984.67
2022-10-24T01:02:03.393Z,984.61
2022-10-24T01:03:03.059Z,984.68
2022-10-24T01:04:03.062Z,984.75
2022-10-24T01:05:03.074Z,984.69
2022-10-24T01:06:03.042Z,984.67
2022-10-24T01:07:03.023Z,984.66
2022-10-24T01:08:02.991Z,984.63
2022-10-24T01:09:03.017Z,984.61
2022-10-24T01:10:03.025Z,984.68
2022-10-24T01:11:02.957Z,984.67
2022-10-24T01:12:02.984Z,984.74
2022-10-24T01:13:02.950Z,984.72
2022-10-24T01:14:02.945Z,984.78
2022-10-24T01:15:02.940Z,984.68
2022-10-24T01:16:02.966Z,984.69
2022-10-24T01:17:02.904Z,984.71
2022-10-24T01:18:02.910Z,984.72
2022-10-24T01:19:02.894Z,984.66
2022-10-24T01:20:02.893Z,984.66
2022-10-24T01:21:02.848Z,984.74
2022-10-24T01:22:02.920Z,984.78
2022-10-24T01:23:02.834Z,984.72
2022-10-24T01:24:02.834Z,984.72
2022-10-24T01:25:02.810Z,984.76
2022-10-24T01:26:02.818Z,984.77
2022-10-24T01:27:02.873Z,984.76
2022-10-24T01:28:02.790Z,984.74
2022-10-24T01:29:02.781Z,984.72
2022-10-24T01:30:02.809Z,984.74
2022-10-24T01:31:02.753Z,984.77
2022-10-24T01:32:02.759Z,984.75
2022-10-24T01:33:02.727Z,984.80
2022-10-24T01:34:02.725Z,984.88
2022-10-24T01:35:02.699Z,984.89
2022-10-24T01:36:02.729Z,984.97
2022-10-24T01:37:02.737Z,984.92
2022-10-24T01:38:02.691Z,984.93
2022-10-24T01:39:02.733Z,984.95
2022-10-24T01:40:02.691Z,984.97
2022-10-24T01:41:02.674Z,984.98
2022-10-24T01:42:02.660Z,984.97
2022-10-24T01:43:02.668Z,985.01
2022-10-24T01:44:02.620Z,984.95
2022-10-24T01:45:02.613Z,984.85
2022-10-24T01:46:02.629Z,984.86
2022-10-24T01:47:02.600Z,984.85
2022-10-24T01:48:02.555Z,984.94
2022-10-24T01:49:02.551Z,984.88
2022-10-24T01:50:02.548Z,984.85
2022-10-24T01:51:02.556Z,984.76
2022-10-24T01:52:02.566Z,984.76
2022-10-24T01:53:02.520Z,984.77
2022-10-24T01:54:02.498Z,984.79
2022-10-24T01:55:02.501Z,984.67
2022-10-24T01:56:02.500Z,984.70
2022-10-24T01:57:02.456Z,984.70
2022-10-24T01:58:02.476Z,984.65
2022-10-24T01:59:02.445Z,984.68
2022-10-24T02:00:02.461Z,984.64
2022-10-24T02:01:02.513Z,984.62
2022-10-24T02:02:02.442Z,984.63
2022-10-24T02:03:02.405Z,984.59
2022-10-24T02:04:02.386Z,984.55
2022-10-24T02:05:02.404Z,984.53
2022-10-24T02:06:02.407Z,984.59
2022-10-24T02:07:02.359Z,984.64
2022-10-24T02:08:02.344Z,984.59
2022-10-24T02:09:02.375Z,984.70
2022-10-24T02:10:02.354Z,984.64
2022-10-24T02:11:02.356Z,984.57
2022-10-24T02:12:02.347Z,984.63
2022-10-24T02:13:02.305Z,984.68
2022-10-24T02:14:02.286Z,984.64
2022-10-24T02:15:02.261Z,984.70
2022-10-24T02:16:02.290Z,984.66
2022-10-24T02:17:02.238Z,984.62
2022-10-24T02:18:02.248Z,984.61
2022-10-24T02:19:02.244Z,984.60
2022-10-24T02:20:02.209Z,984.61
2022-10-24T02:21:02.220Z,984.61
2022-10-24T02:22:02.180Z,984.51
2022-10-24T02:23:02.188Z,984.49
2022-10-24T02:24:02.173Z,984.44
2022-10-24T02:25:02.176Z,984.39
2022-10-24T02:26:02.161Z,984.43
2022-10-24T02:27:02.140Z,984.41
2022-10-24T02:28:02.115Z,984.43
2022-10-24T02:29:02.119Z,984.37
2022-10-24T02:30:02.095Z,984.41
2022-10-24T02:31:02.133Z,984.39
2022-10-24T02:32:02.112Z,984.46
2022-10-24T02:33:02.059Z,984.45
2022-10-24T02:34:02.172Z,984.57
2022-10-24T02:35:02.045Z,984.64
2022-10-24T02:36:02.054Z,984.69
2022-10-24T02:37:02.061Z,984.77
2022-10-24T02:38:02.025Z,984.73
2022-10-24T02:39:02.030Z,984.78
2022-10-24T02:40:02.028Z,984.77
2022-10-24T02:41:01.992Z,984.81
2022-10-24T02:42:01.988Z,984.73
2022-10-24T02:43:01.988Z,984.73
2022-10-24T02:44:01.952Z,984.66
2022-10-24T02:45:01.932Z,984.55
2022-10-24T02:46:01.979Z,984.48
2022-10-24T02:47:01.931Z,984.43
2022-10-24T02:48:01.925Z,984.36
2022-10-24T02:49:01.911Z,984.33
2022-10-24T02:50:01.891Z,984.35
2022-10-24T02:51:01.907Z,984.35
2022-10-24T02:52:01.873Z,984.28
2022-10-24T02:53:01.853Z,984.27
2022-10-24T02:54:01.831Z,984.31
2022-10-24T02:55:01.833Z,984.35
2022-10-24T02:56:01.827Z,984.40
2022-10-24T02:57:01.905Z,984.39
2022-10-24T02:58:01.897Z,984.43
2022-10-24T02:59:01.820Z,984.51
2022-10-24T03:00:01.778Z,984.51
2022-10-24T03:01:01.898Z,984.52
2022-10-24T03:02:01.754Z,984.52
2022-10-24T03:03:01.732Z,984.48
2022-10-24T03:04:01.773Z,984.37
2022-10-24T03:05:01.707Z,984.37
2022-10-24T03:06:01.746Z,984.38
2022-10-24T03:07:01.695Z,984.36
2022-10-24T03:08:01.691Z,984.38
2022-10-24T03:09:01.695Z,984.40
2022-10-24T03:10:01.677Z,984.44
2022-10-24T03:11:01.735Z,984.48
2022-10-24T03:12:01.639Z,984.47
2022-10-24T03:13:01.621Z,984.47
2022-10-24T03:14:01.673Z,984.55
2022-10-24T03:15:01.595Z,984.53
2022-10-24T03:16:01.693Z,984.55
2022-10-24T03:17:01.592Z,984.55
2022-10-24T03:18:01.589Z,984.53
2022-10-24T03:19:01.575Z,984.55
2022-10-24T03:20:01.564Z,984.64
2022-10-24T03:21:01.656Z,984.66
2022-10-24T03:22:01.547Z,984.73
2022-10-24T03:23:01.527Z,984.68
2022-10-24T03:24:01.593Z,984.81
2022-10-24T03:25:01.496Z,984.78
2022-10-24T03:26:01.487Z,984.80
2022-10-24T03:27:01.479Z,984.77
2022-10-24T03:28:01.486Z,984.79
2022-10-24T03:29:01.456Z,984.96
2022-10-24T03:30:01.447Z,984.86
2022-10-24T03:31:01.441Z,984.92
2022-10-24T03:32:01.407Z,984.91
2022-10-24T03:33:01.391Z,984.99
2022-10-24T03:34:01.420Z,984.98
2022-10-24T03:35:01.381Z,984.94
2022-10-24T03:36:01.411Z,984.96
2022-10-24T03:37:01.362Z,984.98
2022-10-24T03:38:01.396Z,985.07
2022-10-24T03:39:01.331Z,985.03
2022-10-24T03:40:01.330Z,985.11
2022-10-24T03:41:01.347Z,985.16
2022-10-24T03:42:01.295Z,985.21
2022-10-24T03:43:01.295Z,985.31
2022-10-24T03:44:01.301Z,985.27
2022-10-24T03:45:01.265Z,985.31
2022-10-24T03:46:01.259Z,985.29
2022-10-24T03:47:01.270Z,985.41
2022-10-24T03:48:01.234Z,985.44
2022-10-24T03:50:01.248Z,985.46
2022-10-24T03:51:01.215Z,985.47
2022-10-24T03:52:01.236Z,985.39
2022-10-24T03:53:01.221Z,985.34
2022-10-24T03:54:01.196Z,985.39
2022-10-24T03:55:01.165Z,985.22
2022-10-24T03:56:01.171Z,985.12
2022-10-24T03:57:01.165Z,985.16
2022-10-24T03:58:01.163Z,985.21
2022-10-24T03:59:01.115Z,985.34
2022-10-24T04:00:01.126Z,985.30
2022-10-24T04:01:01.200Z,985.35
2022-10-24T04:02:01.201Z,985.30
2022-10-24T04:03:01.065Z,985.30
2022-10-24T04:04:01.060Z,985.30
2022-10-24T04:05:01.057Z,985.24
2022-10-24T04:06:01.061Z,985.13
2022-10-24T04:07:01.044Z,985.21
2022-10-24T04:08:01.011Z,985.31
2022-10-24T04:09:01.005Z,985.22
2022-10-24T04:10:01.017Z,985.11
2022-10-24T04:11:00.986Z,985.09
2022-10-24T04:12:01.027Z,985.13
2022-10-24T04:13:00.960Z,985.15
2022-10-24T04:15:04.029Z,985.11
2022-10-24T04:16:00.949Z,985.02
2022-10-24T04:17:00.922Z,984.96
2022-10-24T04:18:00.957Z,984.94
2022-10-24T04:19:00.897Z,984.89
2022-10-24T04:20:00.897Z,984.93
2022-10-24T04:21:00.911Z,984.90
2022-10-24T04:22:00.869Z,984.90
2022-10-24T04:23:03.696Z,984.87
2022-10-24T04:24:00.887Z,984.86
2022-10-24T04:25:00.833Z,984.90
2022-10-24T04:26:00.862Z,984.84
2022-10-24T04:27:00.801Z,984.88
2022-10-24T04:28:00.796Z,984.83
2022-10-24T04:29:00.791Z,984.87
2022-10-24T04:30:00.770Z,984.85
2022-10-24T04:31:00.763Z,984.87
2022-10-24T04:32:00.821Z,984.84
2022-10-24T04:33:00.735Z,984.76
2022-10-24T04:34:00.746Z,984.73
2022-10-24T04:35:00.720Z,984.74
2022-10-24T04:36:00.733Z,984.76
2022-10-24T04:37:00.696Z,984.71
2022-10-24T04:38:00.713Z,984.72
2022-10-24T04:40:00.668Z,984.80
2022-10-24T04:41:00.669Z,984.83
2022-10-24T04:42:00.663Z,984.88
2022-10-24T04:43:00.643Z,984.85
2022-10-24T04:44:00.616Z,984.89
2022-10-24T04:45:00.669Z,984.90
2022-10-24T04:46:00.658Z,984.94
2022-10-24T04:47:00.582Z,984.86
2022-10-24T04:48:00.568Z,984.87
2022-10-24T04:49:00.566Z,984.95
2022-10-24T04:50:00.567Z,984.92
2022-10-24T04:51:00.568Z,984.97
2022-10-24T04:52:00.580Z,985.12
2022-10-24T04:53:00.557Z,985.27
2022-10-24T04:54:00.662Z,985.25
2022-10-24T04:55:00.516Z,985.29
2022-10-24T04:56:00.507Z,985.28
2022-10-24T04:57:00.518Z,985.28
2022-10-24T04:58:00.475Z,985.26
2022-10-24T04:59:00.459Z,985.27
2022-10-24T05:00:00.452Z,985.36
2022-10-24T05:01:00.526Z,985.37
2022-10-24T05:02:00.474Z,985.35
2022-10-24T05:03:00.427Z,985.41
2022-10-24T05:05:00.376Z,985.40
2022-10-24T05:06:00.415Z,985.45
2022-10-24T05:07:00.381Z,985.39
2022-10-24T05:08:00.358Z,985.41
2022-10-24T05:09:00.347Z,985.40
2022-10-24T05:10:00.333Z,985.30
2022-10-24T05:11:00.326Z,985.31
2022-10-24T05:12:00.330Z,985.39
2022-10-24T05:13:00.330Z,985.43
2022-10-24T05:14:00.313Z,985.40
2022-10-24T05:15:00.281Z,985.41
2022-10-24T05:16:00.321Z,985.39
2022-10-24T05:17:00.263Z,985.35
2022-10-24T05:18:00.247Z,985.30
2022-10-24T05:19:00.250Z,985.36
2022-10-24T05:20:00.274Z,985.40
2022-10-24T05:21:00.226Z,985.34
2022-10-24T05:22:00.224Z,985.18
2022-10-24T05:23:00.185Z,985.30
2022-10-24T05:24:00.175Z,985.46
2022-10-24T05:25:00.166Z,985.51
2022-10-24T05:26:00.216Z,985.56
2022-10-24T05:27:00.164Z,985.34
2022-10-24T05:28:00.175Z,985.23
2022-10-24T05:29:00.179Z,985.05
2022-10-24T05:30:00.154Z,985.08
2022-10-24T05:31:00.143Z,985.04
2022-10-24T05:32:00.093Z,985.23
2022-10-24T05:33:00.104Z,985.18
2022-10-24T05:34:00.110Z,985.18
2022-10-24T05:35:00.085Z,985.10
2022-10-24T05:36:00.121Z,985.13
2022-10-24T05:37:00.098Z,985.13
2022-10-24T05:38:00.040Z,985.07
2022-10-24T05:39:00.038Z,985.04
2022-10-24T05:40:00.004Z,985.03
2022-10-24T05:41:00.085Z,985.05
2022-10-24T05:41:59.967Z,985.06
2022-10-24T05:42:59.984Z,985.09
2022-10-24T05:43:59.945Z,985.05
2022-10-24T05:45:00.042Z,985.04
2022-10-24T05:45:59.945Z,985.05
2022-10-24T05:46:59.933Z,985.01
2022-10-24T05:47:59.925Z,985.02
2022-10-24T05:48:59.912Z,985.00
2022-10-24T05:49:59.883Z,985.04
2022-10-24T05:50:59.993Z,984.93
2022-10-24T05:51:59.861Z,984.94
2022-10-24T05:52:59.853Z,984.93
2022-10-24T05:53:59.891Z,984.98
2022-10-24T05:55:07.303Z,985.04
2022-10-24T05:56:00.882Z,985.08
2022-10-24T05:56:59.846Z,985.08
2022-10-24T05:57:59.788Z,985.09
2022-10-24T05:58:59.794Z,985.07
2022-10-24T05:59:59.767Z,985.07
2022-10-24T06:00:59.868Z,985.08
2022-10-24T06:02:00.046Z,985.03
2022-10-24T06:02:59.790Z,985.01
2022-10-24T06:03:59.734Z,985.03
2022-10-24T06:04:59.743Z,984.99
2022-10-24T06:05:59.730Z,984.99
2022-10-24T06:06:59.724Z,984.98
2022-10-24T06:07:59.695Z,985.01
2022-10-24T06:08:59.681Z,984.97
2022-10-24T06:09:59.658Z,985.05
2022-10-24T06:10:59.714Z,985.03
2022-10-24T06:11:59.731Z,985.12
2022-10-24T06:12:59.627Z,985.19
2022-10-24T06:13:59.621Z,985.21
2022-10-24T06:14:59.618Z,985.18
2022-10-24T06:15:59.603Z,985.18
2022-10-24T06:16:59.624Z,985.21
2022-10-24T06:17:59.637Z,985.24
2022-10-24T06:18:59.566Z,985.35
2022-10-24T06:19:59.557Z,985.28
2022-10-24T06:20:59.566Z,985.22
2022-10-24T06:21:59.601Z,985.26
2022-10-24T06:22:59.518Z,985.32
2022-10-24T06:23:59.573Z,985.34
2022-10-24T06:24:59.502Z,985.38
2022-10-24T06:25:59.507Z,985.36
2022-10-24T06:26:59.478Z,985.39
2022-10-24T06:27:59.535Z,985.44
2022-10-24T06:28:59.458Z,985.35
2022-10-24T06:29:59.504Z,985.36
2022-10-24T06:30:59.457Z,985.36
2022-10-24T06:31:59.458Z,985.48
2022-10-24T06:32:59.418Z,985.51
2022-10-24T06:33:59.416Z,985.50
2022-10-24T06:34:59.450Z,985.59
2022-10-24T06:35:59.393Z,985.58
2022-10-24T06:36:59.406Z,985.59
2022-10-24T06:37:59.384Z,985.65
2022-10-24T06:38:59.351Z,985.64
2022-10-24T06:39:59.340Z,985.57
2022-10-24T06:40:59.355Z,985.68
2022-10-24T06:41:59.311Z,985.63
2022-10-24T06:42:59.338Z,985.68
2022-10-24T06:43:59.294Z,985.76
2022-10-24T06:45:59.321Z,985.69
2022-10-24T06:46:59.267Z,985.77
2022-10-24T06:47:59.260Z,985.75
2022-10-24T06:48:59.241Z,985.77
2022-10-24T06:49:59.269Z,985.77
2022-10-24T06:50:59.251Z,985.80
2022-10-24T06:51:59.303Z,985.77
2022-10-24T06:52:59.192Z,985.79
2022-10-24T06:53:59.196Z,985.69
2022-10-24T06:54:59.182Z,985.78
2022-10-24T06:55:59.177Z,985.76
2022-10-24T06:56:59.158Z,985.77
2022-10-24T06:57:59.192Z,985.77
2022-10-24T06:58:59.153Z,985.88
2022-10-24T06:59:59.132Z,985.83
2022-10-24T07:00:59.562Z,985.84
2022-10-24T07:02:01.834Z,985.79
2022-10-24T07:03:00.158Z,985.74
2022-10-24T07:03:59.090Z,985.75
2022-10-24T07:04:59.086Z,985.81
2022-10-24T07:05:59.128Z,985.78
2022-10-24T07:06:59.043Z,985.76
2022-10-24T07:07:59.050Z,985.70
2022-10-24T07:08:59.042Z,985.74
2022-10-24T07:09:59.051Z,985.78
2022-10-24T07:10:59.037Z,985.84
2022-10-24T07:11:59.086Z,985.90
2022-10-24T07:12:58.989Z,985.89
2022-10-24T07:14:00.898Z,985.92
2022-10-24T07:14:58.989Z,985.86
2022-10-24T07:15:58.967Z,985.84
2022-10-24T07:16:58.942Z,985.82
2022-10-24T07:17:58.972Z,985.78
2022-10-24T07:18:58.904Z,985.83
2022-10-24T07:19:58.932Z,985.73
2022-10-24T07:20:59.016Z,985.66
2022-10-24T07:21:58.894Z,985.67
2022-10-24T07:22:58.869Z,985.68
2022-10-24T07:23:58.908Z,985.67
2022-10-24T07:24:58.861Z,985.67
2022-10-24T07:25:58.884Z,985.66
2022-10-24T07:26:58.818Z,985.69
2022-10-24T07:27:58.846Z,985.68
2022-10-24T07:28:58.814Z,985.58
2022-10-24T07:30:03.038Z,985.59
2022-10-24T07:30:59.929Z,985.55
2022-10-24T07:31:58.766Z,985.53
2022-10-24T07:32:58.781Z,985.52
2022-10-24T07:33:58.790Z,985.55
2022-10-24T07:34:58.745Z,985.56
2022-10-24T07:35:58.740Z,985.64
2022-10-24T07:36:58.707Z,985.60
2022-10-24T07:37:58.714Z,985.70
2022-10-24T07:38:58.705Z,985.75
2022-10-24T07:39:58.702Z,985.79
2022-10-24T07:40:58.768Z,985.81
2022-10-24T07:41:58.646Z,985.89
2022-10-24T07:42:58.663Z,985.79
2022-10-24T07:43:58.633Z,985.82
2022-10-24T07:44:58.643Z,985.79
2022-10-24T07:45:58.724Z,985.76
2022-10-24T07:46:58.596Z,985.73
2022-10-24T07:47:58.602Z,985.75
2022-10-24T07:48:58.576Z,985.76
2022-10-24T07:49:58.570Z,985.66
2022-10-24T07:50:58.618Z,985.69
2022-10-24T07:51:58.580Z,985.66
2022-10-24T07:52:58.571Z,985.67
2022-10-24T07:53:58.535Z,985.70
2022-10-24T07:54:58.513Z,985.70
2022-10-24T07:55:58.517Z,985.72
2022-10-24T07:56:58.493Z,985.80
2022-10-24T07:57:58.519Z,985.78
2022-10-24T07:58:58.460Z,985.75
2022-10-24T07:59:58.448Z,985.72
2022-10-24T08:00:58.490Z,985.73
2022-10-24T08:01:58.427Z,985.70
2022-10-24T08:02:58.421Z,985.77
2022-10-24T08:03:58.426Z,985.72
2022-10-24T08:04:58.412Z,985.69
2022-10-24T08:05:58.419Z,985.71
2022-10-24T08:06:58.388Z,985.71
2022-10-24T08:08:12.102Z,985.77
2022-10-24T08:08:59.367Z,985.86
2022-10-24T08:09:58.371Z,985.82
2022-10-24T08:10:58.475Z,985.85
2022-10-24T08:11:58.332Z,985.83
2022-10-24T08:12:58.356Z,985.77
2022-10-24T08:13:58.295Z,985.74
2022-10-24T08:14:58.304Z,985.66
2022-10-24T08:15:58.310Z,985.66
2022-10-24T08:16:58.370Z,985.62
2022-10-24T08:17:58.252Z,985.64
2022-10-24T08:18:58.257Z,985.63
2022-10-24T08:19:58.245Z,985.65
2022-10-24T08:20:58.272Z,985.70
2022-10-24T08:21:58.211Z,985.74
2022-10-24T08:22:58.195Z,985.82
2022-10-24T08:23:58.212Z,985.83
2022-10-24T08:24:58.175Z,985.93
2022-10-24T08:25:58.199Z,985.94
2022-10-24T08:26:58.206Z,985.96
2022-10-24T08:27:58.172Z,985.92
2022-10-24T08:28:58.139Z,985.98
2022-10-24T08:29:58.150Z,985.95
2022-10-24T08:30:58.150Z,985.96
2022-10-24T08:31:58.165Z,985.99
2022-10-24T08:32:58.120Z,986.01
2022-10-24T08:33:58.101Z,985.97
2022-10-24T08:34:58.071Z,985.96
2022-10-24T08:35:58.102Z,985.95
2022-10-24T08:36:58.094Z,985.96
2022-10-24T08:37:58.043Z,986.00
2022-10-24T08:38:58.091Z,986.01
2022-10-24T08:39:58.010Z,986.05
2022-10-24T08:40:58.074Z,986.01
2022-10-24T08:42:00.226Z,986.06
2022-10-24T08:42:58.012Z,986.05
2022-10-24T08:43:57.967Z,986.08
2022-10-24T08:44:57.958Z,986.11
2022-10-24T08:45:57.967Z,986.08
2022-10-24T08:46:57.979Z,986.05
2022-10-24T08:47:57.954Z,986.06
2022-10-24T08:52:27.672Z,986.00
2022-10-24T08:53:27.582Z,986.04
2022-10-24T08:54:27.522Z,986.10
2022-10-24T08:56:28.485Z,986.17
2022-10-24T08:57:27.604Z,986.16
2022-10-24T08:58:27.505Z,986.20
2022-10-24T08:59:27.555Z,986.24
2022-10-24T09:00:27.525Z,986.24
2022-10-24T09:01:27.595Z,986.23
2022-10-24T09:02:27.576Z,986.30
2022-10-24T09:03:43.997Z,986.36
2022-10-24T09:04:28.404Z,986.37
2022-10-24T09:05:27.516Z,986.32
2022-10-24T09:06:27.409Z,986.31
2022-10-24T09:07:27.382Z,986.25
2022-10-24T09:08:27.389Z,986.21
2022-10-24T09:09:27.348Z,986.18
2022-10-24T09:10:27.378Z,986.29
2022-10-24T09:11:27.337Z,986.27
2022-10-24T09:12:27.362Z,986.26
2022-10-24T09:13:27.343Z,986.32
2022-10-24T09:14:27.344Z,986.34
2022-10-24T09:15:27.319Z,986.38
2022-10-24T09:16:27.272Z,986.36
2022-10-24T09:17:27.301Z,986.42
2022-10-24T09:18:27.252Z,986.42
2022-10-24T09:19:27.237Z,986.35
2022-10-24T09:20:27.283Z,986.36
2022-10-24T09:21:27.253Z,986.34
2022-10-24T09:22:27.211Z,986.37
2022-10-24T09:23:27.209Z,986.37
2022-10-24T09:24:27.216Z,986.43
2022-10-24T09:25:27.207Z,986.43
2022-10-24T09:26:27.176Z,986.42
2022-10-24T09:27:27.188Z,986.43
2022-10-24T09:28:27.199Z,986.38
2022-10-24T09:29:27.219Z,986.38
2022-10-24T09:30:30.079Z,986.43
2022-10-24T09:31:28.108Z,986.43
2022-10-24T09:32:27.121Z,986.42
2022-10-24T09:33:27.090Z,986.51
2022-10-24T09:34:27.070Z,986.47
2022-10-24T09:35:27.082Z,986.55
2022-10-24T09:36:27.074Z,986.50
2022-10-24T09:37:27.041Z,986.51
2022-10-24T09:38:27.046Z,986.58
2022-10-24T09:39:27.012Z,986.67
2022-10-24T09:40:27.088Z,986.67
2022-10-24T09:41:27.007Z,986.70
2022-10-24T09:42:27.006Z,986.75
2022-10-24T09:43:26.984Z,986.75
2022-10-24T09:44:27.000Z,986.72
2022-10-24T09:45:26.976Z,986.64
2022-10-24T09:46:26.928Z,986.68
2022-10-24T09:47:26.937Z,986.65
2022-10-24T09:48:30.106Z,986.60
2022-10-24T09:49:26.977Z,986.65
2022-10-24T09:50:26.905Z,986.72
2022-10-24T09:51:26.894Z,986.77
2022-10-24T09:52:26.982Z,986.79
2022-10-24T09:53:26.856Z,986.82
2022-10-24T09:54:26.859Z,986.83
2022-10-24T09:55:26.845Z,986.78
2022-10-24T09:56:26.844Z,986.71
2022-10-24T09:57:29.400Z,986.81
2022-10-24T09:58:26.863Z,986.92
2022-10-24T09:59:26.794Z,986.94
2022-10-24T10:00:26.865Z,987.06
2022-10-24T10:01:26.874Z,987.07
2022-10-24T10:02:26.855Z,987.06
2022-10-24T10:03:26.798Z,987.08
2022-10-24T10:04:26.759Z,987.10
2022-10-24T10:05:26.767Z,987.03
2022-10-24T10:06:26.713Z,987.02
2022-10-24T10:07:26.763Z,987.07
2022-10-24T10:08:26.692Z,987.06
2022-10-24T10:09:26.685Z,987.12
2022-10-24T10:10:26.766Z,987.05
2022-10-24T10:11:26.663Z,987.06
2022-10-24T10:12:26.729Z,987.06
2022-10-24T10:13:26.649Z,987.07
2022-10-24T10:14:26.676Z,987.17
2022-10-24T10:15:26.649Z,987.14
2022-10-24T10:16:26.634Z,987.21
2022-10-24T10:17:26.661Z,987.15
2022-10-24T10:18:26.653Z,987.05
2022-10-24T10:19:26.567Z,987.05
2022-10-24T10:20:26.569Z,987.05
2022-10-24T10:21:26.587Z,987.13
2022-10-24T10:22:26.559Z,987.10
2022-10-24T10:23:26.583Z,987.05
2022-10-24T10:24:26.511Z,987.07
2022-10-24T10:25:26.571Z,987.05
2022-10-24T10:26:26.515Z,987.02
2022-10-24T10:27:26.539Z,987.02
2022-10-24T10:28:26.467Z,987.04
2022-10-24T10:29:26.470Z,987.03
2022-10-24T10:30:26.497Z,986.99
2022-10-24T10:31:26.440Z,987.00
2022-10-24T10:32:26.436Z,986.99
2022-10-24T10:33:26.465Z,987.06
2022-10-24T10:34:26.402Z,987.08
2022-10-24T10:35:26.425Z,987.10
2022-10-24T10:36:26.385Z,987.08
2022-10-24T10:37:26.379Z,987.15
2022-10-24T10:38:26.367Z,987.09
2022-10-24T10:39:26.354Z,987.11
2022-10-24T10:40:26.412Z,987.09
2022-10-24T10:41:26.340Z,987.06
2022-10-24T10:42:26.339Z,987.02
2022-10-24T10:43:26.311Z,987.02
2022-10-24T10:44:26.307Z,987.03
2022-10-24T10:45:26.320Z,987.10
2022-10-24T10:46:26.274Z,987.09
2022-10-24T10:47:27.533Z,987.08
2022-10-24T10:48:26.245Z,987.06
2022-10-24T10:49:26.285Z,987.10
2022-10-24T10:50:26.297Z,987.09
2022-10-24T10:51:26.211Z,987.12
2022-10-24T10:52:26.207Z,987.09
2022-10-24T10:53:26.217Z,987.09
2022-10-24T10:54:26.177Z,987.10
2022-10-24T10:55:26.183Z,987.15
2022-10-24T10:56:26.159Z,987.09
2022-10-24T10:57:29.049Z,987.14
2022-10-24T10:58:26.213Z,987.13
2022-10-24T10:59:28.651Z,987.13
2022-10-24T11:00:26.181Z,987.17
2022-10-24T11:01:26.224Z,987.19
2022-10-24T11:02:26.234Z,987.15
2022-10-24T11:03:26.089Z,987.14
2022-10-24T11:04:26.077Z,987.19
2022-10-24T11:05:26.098Z,987.17
2022-10-24T11:06:26.053Z,987.11
2022-10-24T11:07:26.085Z,987.13
2022-10-24T11:08:26.052Z,987.10
2022-10-24T11:09:26.027Z,987.15
2022-10-24T11:10:26.072Z,987.13
2022-10-24T11:11:26.018Z,987.12
2022-10-24T11:12:25.991Z,987.06
2022-10-24T11:13:25.980Z,987.06
2022-10-24T11:14:25.986Z,987.06
2022-10-24T11:15:25.991Z,987.06
2022-10-24T11:16:25.946Z,987.06
2022-10-24T11:17:25.994Z,987.01
2022-10-24T11:18:25.923Z,987.00
2022-10-24T11:19:25.914Z,987.09
2022-10-24T11:20:25.988Z,987.02
2022-10-24T11:21:25.928Z,987.04
2022-10-24T11:22:25.881Z,986.97
2022-10-24T11:23:25.908Z,986.97
2022-10-24T11:24:25.854Z,986.98
2022-10-24T11:25:25.880Z,986.92
2022-10-24T11:26:25.884Z,986.90
2022-10-24T11:27:25.927Z,986.91
2022-10-24T11:28:25.850Z,986.92
2022-10-24T11:29:25.818Z,986.91
2022-10-24T11:30:25.821Z,986.93
2022-10-24T11:31:25.809Z,986.92
2022-10-24T11:32:25.774Z,986.85
2022-10-24T11:33:25.775Z,986.85
2022-10-24T11:34:25.764Z,986.77
2022-10-24T11:35:25.807Z,986.77
2022-10-24T11:36:25.736Z,986.81
2022-10-24T11:37:25.753Z,986.72
2022-10-24T11:38:25.855Z,986.75
2022-10-24T11:39:25.792Z,986.71
2022-10-24T11:40:25.791Z,986.69
2022-10-24T11:41:25.715Z,986.71
2022-10-24T11:42:25.645Z,986.70
2022-10-24T11:43:25.723Z,986.66
2022-10-24T11:44:25.646Z,986.67
2022-10-24T11:45:25.625Z,986.65
2022-10-24T11:46:25.614Z,986.67
2022-10-24T11:47:25.654Z,986.67
2022-10-24T11:48:25.653Z,986.63
2022-10-24T11:49:25.573Z,986.66
2022-10-24T11:50:25.955Z,986.65
2022-10-24T11:51:25.551Z,986.66
2022-10-24T11:52:25.544Z,986.60
2022-10-24T11:53:25.611Z,986.65
2022-10-24T11:54:25.523Z,986.55
2022-10-24T11:55:25.505Z,986.60
2022-10-24T11:56:27.311Z,986.60
2022-10-24T11:57:25.490Z,986.59
2022-10-24T11:58:25.516Z,986.60
2022-10-24T11:59:25.474Z,986.63
2022-10-24T12:00:25.501Z,986.55
2022-10-24T12:01:25.495Z,986.58
2022-10-24T12:02:25.718Z,986.62
2022-10-24T12:03:25.536Z,986.58
2022-10-24T12:04:25.415Z,986.57
2022-10-24T12:05:25.441Z,986.58
2022-10-24T12:06:25.452Z,986.54
2022-10-24T12:07:25.390Z,986.52
2022-10-24T12:08:25.375Z,986.50
2022-10-24T12:09:25.374Z,986.54
2022-10-24T12:10:25.414Z,986.54
2022-10-24T12:11:25.336Z,986.49
2022-10-24T12:12:25.368Z,986.47
2022-10-24T12:13:26.125Z,986.47
2022-10-24T12:14:25.307Z,986.50
2022-10-24T12:15:25.338Z,986.46
2022-10-24T12:16:25.291Z,986.48
2022-10-24T12:17:25.290Z,986.49
2022-10-24T12:18:25.295Z,986.43
2022-10-24T12:19:25.275Z,986.46
2022-10-24T12:20:25.273Z,986.42
2022-10-24T12:21:26.182Z,986.38
2022-10-24T12:23:25.238Z,986.36
2022-10-24T12:24:25.203Z,986.38
2022-10-24T12:25:25.217Z,986.36
2022-10-24T12:26:25.173Z,986.37
2022-10-24T12:27:25.157Z,986.35
2022-10-24T12:28:25.174Z,986.33
2022-10-24T12:29:25.133Z,986.35
2022-10-24T12:30:25.151Z,986.36
2022-10-24T12:31:26.401Z,986.38
2022-10-24T12:32:25.107Z,986.35
2022-10-24T12:33:25.098Z,986.32
2022-10-24T12:34:25.101Z,986.36
2022-10-24T12:35:30.565Z,986.32
2022-10-24T12:36:26.141Z,986.30
2022-10-24T12:37:25.050Z,986.29
2022-10-24T12:38:25.051Z,986.36